D07

Faith Municipal Airport

Faith, South Dakota, USA
METAR KD07 182156Z AUTO 23010KT 23/18 A2986 RMK AO1 SLP100 T02280183
Observed Flight Rules
Jul-18 @ 21:56 UTC (33 minutes ago)
Wind
230° at 10 knots
Temperatures Readings
Current 23°C / 73°F
Dewpoint 18°C / 64°F
Humidity 74%
Altimeter 29.86" Hg
Pressure 1010 hPa
Elevation 784
METAR KD07 182156Z AUTO 23010KT 23/18 A2986 RMK AO1 SLP100 T02280183
Observed Flight Rules
Jul-18 @ 21:56 UTC
(33 minutes ago)
Wind
230° at 10 knots
Temperature Dewpoint
23°C / 73°F 18°C / 64°F
Humidity Altimeter Pressure
74% 29.86" Hg 1010 hPa